createdAt,value
2022-08-28T00:06:48.205Z,17.2
2022-08-28T00:16:49.169Z,17
2022-08-28T00:26:49.909Z,16.9
2022-08-28T00:36:50.083Z,16.7
2022-08-28T00:46:50.857Z,16.6
2022-08-28T00:56:51.016Z,16.5
2022-08-28T01:06:51.696Z,16.3
2022-08-28T01:26:52.687Z,16.1
2022-08-28T01:36:52.844Z,15.9
2022-08-28T01:46:53.162Z,15.7
2022-08-28T01:56:53.709Z,15.6
2022-08-28T02:06:54.375Z,15.5
2022-08-28T02:16:54.591Z,15.4
2022-08-28T02:26:55.489Z,15.3
2022-08-28T02:36:55.859Z,15.2
2022-08-28T02:46:56.232Z,15
2022-08-28T02:56:56.888Z,14.9
2022-08-28T03:06:57.514Z,14.9
2022-08-28T03:16:57.586Z,14.9
2022-08-28T03:26:57.911Z,14.8
2022-08-28T03:36:58.756Z,14.8
2022-08-28T03:46:59.123Z,14.7
2022-08-28T03:56:59.655Z,14.7
2022-08-28T04:17:01.570Z,14.6
2022-08-28T04:27:00.985Z,14.6
2022-08-28T04:37:01.266Z,14.6
2022-08-28T04:47:02.211Z,14.4
2022-08-28T04:57:02.887Z,14.3
2022-08-28T05:07:03.235Z,14.3
2022-08-28T05:17:04.264Z,14.2
2022-08-28T05:27:05.165Z,14.3
2022-08-28T05:37:05.544Z,14.2
2022-08-28T05:39:43.916Z,14.2
2022-08-28T05:47:13.709Z,14.2
2022-08-28T05:57:14.424Z,14.3
2022-08-28T06:07:15.428Z,14.4
2022-08-28T06:17:16.133Z,14.5
2022-08-28T06:27:16.914Z,14.7
2022-08-28T06:37:16.932Z,15
2022-08-28T06:57:18.747Z,15.4
2022-08-28T07:07:31.240Z,15.6
2022-08-28T07:17:19.687Z,15.8
2022-08-28T07:27:20.559Z,16.1
2022-08-28T07:37:20.797Z,16.5
2022-08-28T07:47:21.384Z,16.7
2022-08-28T07:57:22.805Z,16.9
2022-08-28T08:07:22.005Z,17.2
2022-08-28T08:17:22.687Z,17.6
2022-08-28T08:27:22.936Z,18.3
2022-08-28T08:37:23.663Z,17.9
2022-08-28T08:47:23.970Z,17.6
2022-08-28T08:57:24.703Z,17.8
2022-08-28T09:07:25.369Z,18.2
2022-08-28T09:17:25.730Z,18
2022-08-28T09:27:26.480Z,18.5
2022-08-28T09:37:27.020Z,19.3
2022-08-28T09:47:27.632Z,19.7
2022-08-28T09:57:28.465Z,19.6
2022-08-28T10:07:28.857Z,20.1
2022-08-28T10:17:29.676Z,20.2
2022-08-28T10:27:29.726Z,20.1
2022-08-28T10:37:29.769Z,20.5
2022-08-28T10:47:29.948Z,20.4
2022-08-28T10:57:30.542Z,20.8
2022-08-28T11:07:30.849Z,21.3
2022-08-28T11:17:31.693Z,21.3
2022-08-28T11:27:32.615Z,21
2022-08-28T11:37:33.237Z,21.7
2022-08-28T11:47:33.413Z,21.6
2022-08-28T11:57:34.175Z,22
2022-08-28T12:07:35.210Z,21.6
2022-08-28T12:17:35.405Z,21.3
2022-08-28T12:27:35.523Z,22.2
2022-08-28T12:37:39.710Z,21.9
2022-08-28T12:47:37.463Z,22.4
2022-08-28T12:57:38.084Z,22.4
2022-08-28T13:07:38.919Z,22.7
2022-08-28T13:17:39.655Z,22.6
2022-08-28T13:27:40.473Z,22.6
2022-08-28T13:37:40.588Z,23.3
2022-08-28T13:47:41.462Z,22.7
2022-08-28T13:57:41.542Z,22.7
2022-08-28T14:07:42.541Z,23.3
2022-08-28T14:17:43.507Z,23.3
2022-08-28T14:27:44.411Z,23
2022-08-28T14:37:45.137Z,23.3
2022-08-28T15:07:47.146Z,23.7
2022-08-28T15:27:48.159Z,23.3
2022-08-28T15:37:48.851Z,23.4
2022-08-28T15:47:49.622Z,23.5
2022-08-28T15:57:50.404Z,23.6
2022-08-28T16:07:51.427Z,23.7
2022-08-28T16:17:52.303Z,23.8
2022-08-28T16:27:52.914Z,22.8
2022-08-28T16:37:53.882Z,22.8
2022-08-28T16:47:54.185Z,22.6
2022-08-28T16:57:55.023Z,22.7
2022-08-28T17:07:55.241Z,22.5
2022-08-28T17:17:55.781Z,22.3
2022-08-28T17:27:56.121Z,21.7
2022-08-28T17:37:56.769Z,21.5
2022-08-28T17:47:56.984Z,21.3
2022-08-28T17:57:57.047Z,21.2
2022-08-28T18:07:58.031Z,20.9
2022-08-28T18:17:58.736Z,20.8
2022-08-28T18:27:59.104Z,20.4
2022-08-28T18:37:59.777Z,20.2
2022-08-28T18:48:00.424Z,20
2022-08-28T18:58:01.138Z,19.7
2022-08-28T19:08:01.222Z,19.4
2022-08-28T19:18:02.145Z,19.1
2022-08-28T19:38:03.583Z,18.8
2022-08-28T19:48:04.130Z,18.5
2022-08-28T19:58:04.872Z,18.3
2022-08-28T20:08:05.355Z,18
2022-08-28T20:18:05.705Z,17.9
2022-08-28T20:28:06.596Z,17.6
2022-08-28T20:38:06.918Z,17.4
2022-08-28T20:48:07.693Z,17.3
2022-08-28T20:58:07.815Z,17.1
2022-08-28T21:08:08.140Z,17
2022-08-28T21:18:08.788Z,16.8
2022-08-28T21:28:09.703Z,16.7
2022-08-28T21:38:10.156Z,16.4
2022-08-28T21:48:11.136Z,16.1
2022-08-28T21:58:11.501Z,15.9
2022-08-28T22:08:11.844Z,15.6
2022-08-28T22:18:12.932Z,15.5
2022-08-28T22:28:12.987Z,15.4
2022-08-28T22:38:13.440Z,15.2
2022-08-28T22:48:13.968Z,14.9
2022-08-28T22:58:15.014Z,14.8
2022-08-28T23:08:15.682Z,14.9
2022-08-28T23:18:16.064Z,14.8
2022-08-28T23:38:17.041Z,14.3
2022-08-28T23:48:17.406Z,14.1
2022-08-28T23:58:17.599Z,13.8
